createdAt,value
2022-08-07T00:00:56.427Z,98341.56
2022-08-07T00:05:04.008Z,98339.84
2022-08-07T00:09:17.054Z,98344.41
2022-08-07T00:13:25.834Z,98345.16
2022-08-07T00:17:29.110Z,98344.72
2022-08-07T00:21:56.106Z,98344.72
2022-08-07T00:31:37.965Z,98332.00
2022-08-07T00:35:49.045Z,98325.56
2022-08-07T00:39:54.981Z,98318.34
2022-08-07T00:44:01.015Z,98323.06
2022-08-07T00:48:09.379Z,98318.72
2022-08-07T00:52:13.581Z,98317.94
2022-08-07T00:56:30.386Z,98312.13
2022-08-07T01:00:36.111Z,98305.47
2022-08-07T01:04:43.280Z,98306.28
2022-08-07T01:08:53.588Z,98302.44
2022-08-07T01:12:59.021Z,98314.03
2022-08-07T01:17:04.231Z,98314.41
2022-08-07T01:21:17.555Z,98318.22
2022-08-07T01:25:54.559Z,98323.56
2022-08-07T01:29:50.769Z,98316.41
2022-08-07T01:34:02.089Z,98316.00
2022-08-07T01:38:09.700Z,98312.06
2022-08-07T01:42:40.121Z,98316.19
2022-08-07T01:46:42.426Z,98322.22
2022-08-07T01:50:50.115Z,98321.50
2022-08-07T01:54:56.358Z,98319.13
2022-08-07T01:59:09.433Z,98323.56
2022-08-07T02:03:32.135Z,98327.97
2022-08-07T02:07:53.111Z,98330.16
2022-08-07T02:12:29.011Z,98328.06
2022-08-07T02:16:37.127Z,98342.06
2022-08-07T02:20:43.208Z,98344.69
2022-08-07T02:24:53.334Z,98328.84
2022-08-07T02:28:57.383Z,98331.63
2022-08-07T02:33:09.574Z,98329.09
2022-08-07T02:37:14.928Z,98326.19
2022-08-07T02:41:21.787Z,98325.66
2022-08-07T02:45:59.024Z,98326.22
2022-08-07T02:49:57.498Z,98323.50
2022-08-07T02:54:08.275Z,98324.53
2022-08-07T02:58:17.276Z,98322.00
2022-08-07T03:02:25.366Z,98318.66
2022-08-07T03:06:33.139Z,98316.41
2022-08-07T03:10:40.752Z,98323.31
2022-08-07T03:14:52.106Z,98319.97
2022-08-07T03:18:55.937Z,98322.44
2022-08-07T03:22:59.623Z,98317.38
2022-08-07T03:27:04.927Z,98324.72
2022-08-07T03:31:19.659Z,98328.22
2022-08-07T03:35:43.422Z,98325.78
2022-08-07T03:39:59.421Z,98318.59
2022-08-07T03:44:03.748Z,98326.91
2022-08-07T03:48:10.126Z,98336.19
2022-08-07T03:52:22.702Z,98337.97
2022-08-07T03:56:34.284Z,98341.28
2022-08-07T04:00:46.300Z,98336.47
2022-08-07T04:04:54.933Z,98336.25
2022-08-07T04:09:01.718Z,98337.06
2022-08-07T04:13:07.700Z,98335.03
2022-08-07T04:17:21.861Z,98340.91
2022-08-07T04:21:31.176Z,98350.31
2022-08-07T04:25:39.430Z,98359.53
2022-08-07T04:29:58.473Z,98349.75
2022-08-07T04:34:17.041Z,98367.03
2022-08-07T04:38:26.751Z,98372.13
2022-08-07T04:42:32.007Z,98370.19
2022-08-07T04:46:40.035Z,98374.47
2022-08-07T04:51:09.321Z,98380.94
2022-08-07T04:58:10.761Z,98386.78
2022-08-07T05:00:11.803Z,98387.97
2022-08-07T05:04:54.709Z,98399.28
2022-08-07T05:09:15.223Z,98403.75
2022-08-07T05:14:54.050Z,98406.09
2022-08-07T05:22:27.655Z,98404.72
2022-08-07T05:26:34.317Z,98401.56
2022-08-07T05:30:44.536Z,98405.25
2022-08-07T05:34:52.097Z,98400.06
2022-08-07T05:39:00.142Z,98398.72
2022-08-07T05:43:11.621Z,98398.13
2022-08-07T05:47:20.783Z,98403.06
2022-08-07T05:51:25.326Z,98409.56
2022-08-07T05:56:02.040Z,98403.47
2022-08-07T06:00:01.569Z,98413.38
2022-08-07T06:04:21.050Z,98405.75
2022-08-07T06:08:31.578Z,98409.81
2022-08-07T06:12:34.842Z,98421.25
2022-08-07T06:16:39.053Z,98418.28
2022-08-07T06:20:51.061Z,98426.63
2022-08-07T06:25:10.250Z,98410.78
2022-08-07T06:29:13.299Z,98412.56
2022-08-07T06:33:16.688Z,98417.03
2022-08-07T06:37:21.632Z,98417.09
2022-08-07T06:42:01.998Z,98405.16
2022-08-07T06:45:52.689Z,98410.38
2022-08-07T06:49:58.449Z,98393.69
2022-08-07T06:55:31.842Z,98395.31
2022-08-07T06:58:30.125Z,98387.09
2022-08-07T07:02:48.372Z,98390.69
2022-08-07T07:07:01.348Z,98390.28
2022-08-07T07:11:14.135Z,98378.19
2022-08-07T07:15:32.554Z,98388.47
2022-08-07T07:19:57.281Z,98383.03
2022-08-07T07:24:06.106Z,98377.25
2022-08-07T07:28:42.447Z,98369.44
2022-08-07T07:32:45.209Z,98380.44
2022-08-07T07:36:54.019Z,98374.22
2022-08-07T07:41:02.665Z,98374.59
2022-08-07T07:45:06.773Z,98367.56
2022-08-07T07:50:36.409Z,98377.88
2022-08-07T07:53:40.652Z,98375.16
2022-08-07T07:57:58.464Z,98380.22
2022-08-07T08:02:10.715Z,98365.78
2022-08-07T08:06:14.265Z,98382.22
2022-08-07T08:10:35.487Z,98381.06
2022-08-07T08:14:45.217Z,98380.69
2022-08-07T08:18:51.634Z,98383.84
2022-08-07T08:23:15.267Z,98387.78
2022-08-07T08:27:19.275Z,98388.94
2022-08-07T08:31:58.470Z,98392.47
2022-08-07T08:35:50.727Z,98394.44
2022-08-07T08:39:58.648Z,98403.47
2022-08-07T08:44:16.677Z,98394.84
2022-08-07T08:49:02.070Z,98393.22
2022-08-07T08:53:33.342Z,98383.84
2022-08-07T08:57:42.400Z,98384.22
2022-08-07T09:02:00.624Z,98393.63
2022-08-07T09:06:11.647Z,98390.50
2022-08-07T09:10:21.415Z,98398.72
2022-08-07T09:14:37.841Z,98397.53
2022-08-07T09:18:58.459Z,98383.81
2022-08-07T09:24:33.733Z,98383.41
2022-08-07T09:27:59.797Z,98386.53
2022-08-07T09:32:20.950Z,98387.72
2022-08-07T09:36:43.146Z,98381.81
2022-08-07T09:41:07.989Z,98377.53
2022-08-07T09:47:26.045Z,98370.06
2022-08-07T09:50:44.378Z,98372.28
2022-08-07T09:54:56.974Z,98370.22
2022-08-07T09:59:35.670Z,98369.72
2022-08-07T10:04:24.916Z,98368.84
2022-08-07T10:08:59.219Z,98351.94
2022-08-07T10:13:01.118Z,98358.91
2022-08-07T10:18:01.349Z,98348.00
2022-08-07T10:22:38.584Z,98343.47
2022-08-07T10:27:18.088Z,98335.06
2022-08-07T10:31:49.048Z,98335.91
2022-08-07T10:36:17.997Z,98335.03
2022-08-07T10:40:47.484Z,98336.16
2022-08-07T10:45:11.900Z,98314.34
2022-08-07T10:49:45.225Z,98320.84
2022-08-07T10:54:13.242Z,98310.66
2022-08-07T10:58:16.577Z,98302.56
2022-08-07T11:02:34.097Z,98306.16
2022-08-07T11:12:01.520Z,98296.63
2022-08-07T11:16:15.488Z,98291.38
2022-08-07T11:20:44.225Z,98285.22
2022-08-07T11:25:06.656Z,98287.38
2022-08-07T11:29:49.117Z,98282.16
2022-08-07T11:34:12.958Z,98289.72
2022-08-07T11:38:37.268Z,98265.31
2022-08-07T11:42:51.052Z,98257.38
2022-08-07T11:47:08.413Z,98267.53
2022-08-07T11:52:19.798Z,98236.88
2022-08-07T11:56:56.306Z,98243.22
2022-08-07T12:01:05.253Z,98237.03
2022-08-07T12:05:41.138Z,98228.97
2022-08-07T12:10:02.234Z,98225.03
2022-08-07T12:14:18.958Z,98224.69
2022-08-07T12:18:36.480Z,98207.81
2022-08-07T12:22:59.392Z,98203.69
2022-08-07T12:27:27.993Z,98211.22
2022-08-07T12:32:23.803Z,98208.03
2022-08-07T12:36:32.719Z,98203.03
2022-08-07T12:40:47.618Z,98199.09
2022-08-07T12:44:51.816Z,98198.09
2022-08-07T12:49:25.315Z,98185.38
2022-08-07T12:54:36.586Z,98183.16
2022-08-07T12:58:15.807Z,98190.03
2022-08-07T13:02:50.643Z,98186.94
2022-08-07T13:08:13.586Z,98196.06
2022-08-07T13:12:02.253Z,98207.94
2022-08-07T13:16:43.914Z,98209.97
2022-08-07T13:20:59.559Z,98203.69
2022-08-07T13:25:30.856Z,98194.81
2022-08-07T13:29:42.382Z,98182.56
2022-08-07T13:34:33.034Z,98173.31
2022-08-07T13:38:24.764Z,98174.81
2022-08-07T13:42:27.968Z,98203.28
2022-08-07T13:46:37.623Z,98205.84
2022-08-07T13:50:44.801Z,98235.50
2022-08-07T13:55:19.467Z,98235.28
2022-08-07T13:59:31.983Z,98247.50
2022-08-07T14:04:07.194Z,98236.88
2022-08-07T14:08:03.282Z,98227.91
2022-08-07T14:12:10.424Z,98231.56
2022-08-07T14:16:17.791Z,98250.03
2022-08-07T14:54:09.735Z,98263.94
2022-08-07T14:58:27.461Z,98281.13
2022-08-07T15:06:53.420Z,98301.81
2022-08-07T15:11:06.520Z,98309.25
2022-08-07T15:15:17.393Z,98306.88
2022-08-07T15:20:23.512Z,98314.31
2022-08-07T15:25:15.196Z,98327.56
2022-08-07T15:28:34.371Z,98332.66
2022-08-07T15:32:50.810Z,98334.63
2022-08-07T15:37:08.314Z,98338.53
2022-08-07T15:45:57.367Z,98333.00
2022-08-07T15:50:06.829Z,98332.09
2022-08-07T15:54:11.912Z,98325.53
2022-08-07T15:58:20.760Z,98311.94
2022-08-07T16:02:27.646Z,98304.91
2022-08-07T16:06:43.409Z,98304.16
2022-08-07T16:10:49.851Z,98294.75
2022-08-07T16:15:05.807Z,98267.09
2022-08-07T16:19:42.769Z,98274.84
2022-08-07T16:24:34.434Z,98277.84
2022-08-07T16:30:08.533Z,98262.22
2022-08-07T16:34:02.324Z,98257.09
2022-08-07T16:38:05.477Z,98234.47
2022-08-07T16:42:34.887Z,98214.94
2022-08-07T16:47:05.748Z,98177.63
2022-08-07T16:52:01.371Z,98155.91
2022-08-07T16:55:53.812Z,98186.44
2022-08-07T17:00:15.200Z,98193.94
2022-08-07T17:04:50.819Z,98181.22
2022-08-07T17:10:05.277Z,98207.28
2022-08-07T17:14:19.017Z,98230.91
2022-08-07T17:18:46.123Z,98234.66
2022-08-07T17:23:01.215Z,98232.81
2022-08-07T17:27:32.561Z,98228.16
2022-08-07T17:31:44.347Z,98247.69
2022-08-07T17:36:12.052Z,98247.50
2022-08-07T17:40:31.200Z,98256.69
2022-08-07T17:44:50.744Z,98260.66
2022-08-07T17:49:09.417Z,98263.72
2022-08-07T17:53:59.917Z,98271.00
2022-08-07T17:57:56.448Z,98277.47
2022-08-07T18:02:12.754Z,98267.91
2022-08-07T18:06:38.214Z,98282.50
2022-08-07T18:12:08.194Z,98275.47
2022-08-07T18:15:53.584Z,98267.84
2022-08-07T18:21:11.944Z,98261.94
2022-08-07T18:24:43.208Z,98267.22
2022-08-07T18:28:57.773Z,98271.34
2022-08-07T18:33:36.944Z,98259.69
2022-08-07T18:38:55.038Z,98270.38
2022-08-07T18:42:55.602Z,98263.78
2022-08-07T18:47:22.575Z,98280.22
2022-08-07T18:52:35.318Z,98283.28
2022-08-07T18:56:20.242Z,98297.88
2022-08-07T19:00:59.401Z,98285.22
2022-08-07T19:05:20.568Z,98284.66
2022-08-07T19:09:55.552Z,98298.50
2022-08-07T19:14:16.808Z,98307.13
2022-08-07T19:18:34.657Z,98326.22
2022-08-07T19:22:50.154Z,98332.31
2022-08-07T19:31:59.924Z,98365.28
2022-08-07T19:35:56.606Z,98366.47
2022-08-07T19:40:02.585Z,98364.31
2022-08-07T19:44:19.047Z,98381.03
2022-08-07T19:48:53.582Z,98389.19
2022-08-07T19:52:58.644Z,98397.50
2022-08-07T19:58:02.107Z,98399.69
2022-08-07T20:01:52.943Z,98403.53
2022-08-07T20:05:59.781Z,98412.78
2022-08-07T20:10:35.218Z,98417.41
2022-08-07T20:14:32.761Z,98409.50
2022-08-07T20:18:37.796Z,98413.34
2022-08-07T20:22:46.278Z,98415.16
2022-08-07T20:26:52.152Z,98410.00
2022-08-07T20:30:59.275Z,98418.16
2022-08-07T20:35:08.044Z,98412.13
2022-08-07T20:40:03.378Z,98416.56
2022-08-07T20:43:52.767Z,98415.84
2022-08-07T20:48:02.611Z,98417.56
2022-08-07T20:52:14.281Z,98414.13
2022-08-07T20:56:26.322Z,98414.78
2022-08-07T21:00:47.350Z,98407.63
2022-08-07T21:04:51.293Z,98406.50
2022-08-07T21:09:03.594Z,98407.63
2022-08-07T21:13:24.644Z,98417.13
2022-08-07T21:18:02.841Z,98409.94
2022-08-07T21:22:14.764Z,98402.81
2022-08-07T21:27:01.746Z,98397.13
2022-08-07T21:31:15.892Z,98392.19
2022-08-07T21:36:05.102Z,98387.63
2022-08-07T21:40:12.382Z,98392.03
2022-08-07T21:44:28.385Z,98393.53
2022-08-07T21:48:57.503Z,98390.72
2022-08-07T21:53:11.880Z,98397.72
2022-08-07T21:57:52.435Z,98394.91
2022-08-07T22:02:24.115Z,98391.34
2022-08-07T22:06:33.691Z,98394.91
2022-08-07T22:10:38.530Z,98394.97
2022-08-07T22:15:01.922Z,98408.03
2022-08-07T22:19:30.380Z,98410.75
2022-08-07T22:23:43.702Z,98408.34
2022-08-07T22:28:29.704Z,98407.53
2022-08-07T22:32:53.728Z,98419.63
2022-08-07T22:37:05.030Z,98415.03
2022-08-07T22:41:20.011Z,98409.97
2022-08-07T22:46:21.812Z,98417.16
2022-08-07T22:50:29.193Z,98409.59
2022-08-07T22:54:54.681Z,98414.09
2022-08-07T22:59:32.678Z,98408.03
2022-08-07T23:04:09.669Z,98415.25
2022-08-07T23:08:55.723Z,98411.09
2022-08-07T23:13:21.686Z,98407.38
2022-08-07T23:17:50.777Z,98405.56
2022-08-07T23:22:00.712Z,98411.34
2022-08-07T23:26:14.972Z,98403.78
2022-08-07T23:30:37.670Z,98407.59
2022-08-07T23:35:02.482Z,98400.16
2022-08-07T23:39:36.354Z,98394.03
2022-08-07T23:44:00.769Z,98386.25
2022-08-07T23:48:20.545Z,98388.06
2022-08-07T23:52:58.741Z,98385.81
2022-08-07T23:57:19.863Z,98386.97
